»·PEaware :: SWA1228 KLAS-KSNA

SWA1228 :: KLAS-KSNA

FLIGHT INFORMATION

Flight Status: Arrived
Operator:
Southwest Airlines
More flights by this operator :: More flights under this callsign
Pilot: Shane F. (23676)
Aircraft: BOEING 737-800
(B738)
More flights by this aircraft type
Origin: KLAS McCarran Intl
United States
Destination: KSNA John Wayne-Orange Co
United States
More flights between these airports :: More routes between these airports
Route: BOACH8 WHIGG FEYLA DSNEE4
File this flight plan on PilotEdge
Remarks: RMK / SIMBRIEF
Altitude:
(Current/Filed)
26,000ft
Speed:
(Current/Filed)
433kts
Departed: 21-May-20 01:50 PM
Arrived: 21-May-20 02:29 PM
Distance/Time
Traveled:
197nm/0:39
Distance/Time
To Go:
Arrived

Flight Plot

Page will automatically refresh every two minutes.


Map Options




Map Legend


Flown Route
Filed Route
Departure Airport
Arrival Airport
Navaid (VOR, NDB)
Fix

Horizontal Profiles

Position Reports

Time Latitude Longitude Heading Altitude Ground
Speed
21-May-20 13:24 36.079533 -115.146688 24 2096ft 0kts
21-May-20 13:25 36.079533 -115.146688 24 2096ft 0kts
21-May-20 13:26 36.079533 -115.146688 24 2096ft 0kts
21-May-20 13:27 36.079533 -115.146688 24 2096ft 0kts
21-May-20 13:28 36.079533 -115.146688 24 2096ft 0kts
21-May-20 13:29 36.079533 -115.146688 24 2096ft 0kts
21-May-20 13:30 36.079533 -115.146688 24 2096ft 0kts
21-May-20 13:31 36.079533 -115.146688 24 2096ft 0kts
21-May-20 13:32 36.079533 -115.146688 24 2096ft 0kts
21-May-20 13:33 36.079533 -115.146688 24 2096ft 0kts
21-May-20 13:34 36.079533 -115.146688 24 2096ft 0kts
21-May-20 13:35 36.079533 -115.146688 24 2096ft 0kts
21-May-20 13:36 36.079533 -115.146688 24 2096ft 0kts
21-May-20 13:37 36.079533 -115.146688 24 2096ft 0kts
21-May-20 13:38 36.079533 -115.146688 24 2096ft 0kts
21-May-20 13:39 36.079530 -115.146690 24 2096ft 1kts
21-May-20 13:40 36.079156 -115.147199 96 2100ft 2kts
21-May-20 13:41 36.079401 -115.147573 156 2100ft 0kts
21-May-20 13:42 36.079401 -115.147573 156 2100ft 0kts
21-May-20 13:43 36.079400 -115.147573 156 2100ft 0kts
21-May-20 13:44 36.078798 -115.150802 273 2113ft 5kts
21-May-20 13:45 36.081504 -115.154914 337 2121ft 32kts
21-May-20 13:46 36.089097 -115.156625 24 2109ft 30kts
21-May-20 13:47 36.097001 -115.152233 25 2078ft 30kts
21-May-20 13:48 36.098227 -115.152994 302 2077ft 23kts
21-May-20 13:49 36.080928 -115.163684 205 2153ft 162kts
21-May-20 13:50 36.035879 -115.189690 210 3862ft 194kts
21-May-20 13:51 35.994314 -115.248719 241 5640ft 257kts
21-May-20 13:52 35.938696 -115.306295 185 8469ft 287kts
21-May-20 13:53 35.855428 -115.314887 180 10875ft 324kts
21-May-20 13:54 35.761849 -115.304256 175 13593ft 346kts
21-May-20 13:55 35.665717 -115.319375 215 16291ft 359kts
21-May-20 13:56 35.594869 -115.406873 232 18959ft 367kts
21-May-20 13:57 35.524234 -115.501958 233 21477ft 378kts
21-May-20 13:58 35.451492 -115.599861 234 23795ft 387kts
21-May-20 13:59 35.376256 -115.701222 234 25906ft 396kts
21-May-20 14:00 35.297542 -115.807013 233 26032ft 421kts
21-May-20 14:02 35.217065 -115.914471 232 26061ft 423kts
21-May-20 14:03 35.132796 -116.020131 232 26067ft 423kts
21-May-20 14:04 35.050144 -116.124192 232 26067ft 424kts
21-May-20 14:05 34.966311 -116.229483 232 26080ft 433kts
21-May-20 14:06 34.883655 -116.332919 231 26063ft 438kts
21-May-20 14:07 34.798224 -116.441470 232 26050ft 422kts
21-May-20 14:08 34.716488 -116.545413 232 25730ft 419kts
21-May-20 14:09 34.627792 -116.639165 223 23321ft 421kts
21-May-20 14:10 34.536446 -116.728243 221 20904ft 412kts
21-May-20 14:11 34.452040 -116.820185 224 18766ft 393kts
21-May-20 14:12 34.375540 -116.909030 223 16765ft 361kts
21-May-20 14:13 34.305047 -116.990419 221 14946ft 339kts
21-May-20 14:14 34.230280 -117.060678 208 14008ft 345kts
21-May-20 14:15 34.145638 -117.116771 201 13024ft 347kts
21-May-20 14:16 34.055838 -117.164462 202 13011ft 349kts
21-May-20 14:16 33.985410 -117.211321 224 12643ft 337kts
21-May-20 14:18 33.914085 -117.311770 229 10616ft 333kts
21-May-20 14:19 33.854813 -117.395645 229 9031ft 317kts
21-May-20 14:19 33.812143 -117.463799 248 8023ft 280kts
21-May-20 14:21 33.795046 -117.561538 273 7635ft 237kts
21-May-20 14:21 33.796861 -117.620431 274 7172ft 198kts
21-May-20 14:22 33.799066 -117.686904 273 5351ft 194kts
21-May-20 14:24 33.801563 -117.760845 273 4015ft 182kts
21-May-20 14:24 33.791624 -117.805904 199 2604ft 182kts
21-May-20 14:25 33.749858 -117.821668 209 1592ft 139kts
21-May-20 14:26 33.716536 -117.842946 208 865ft 137kts
21-May-20 14:27 33.682209 -117.864699 208 108ft 132kts
21-May-20 14:28 33.669135 -117.871477 118 64ft 0kts
21-May-20 14:29 33.671596 -117.868545 35 64ft 18kts
21-May-20 14:30 33.676616 -117.864909 26 64ft 21kts

Navigation Log

Ident Type
Flight plan parsing failed, navigation log unavailable